sensor_id;sensor_type;location;lat;lon;timestamp;pressure;altitude;pressure_sealevel;temperature;humidity
40205;BME280;26963;42.666;23.366;2022-12-07T00:01:10;94920.88;;;6.73;69.61
40205;BME280;26963;42.666;23.366;2022-12-07T00:03:37;94905.44;;;6.75;69.94
40205;BME280;26963;42.666;23.366;2022-12-07T00:06:05;94946.38;;;7.05;69.38
40205;BME280;26963;42.666;23.366;2022-12-07T00:08:31;94948.47;;;7.13;68.60
40205;BME280;26963;42.666;23.366;2022-12-07T00:11:11;94933.56;;;7.17;68.42
40205;BME280;26963;42.666;23.366;2022-12-07T00:13:38;94946.88;;;7.22;68.26
40205;BME280;26963;42.666;23.366;2022-12-07T00:16:12;94911.75;;;7.15;67.90
40205;BME280;26963;42.666;23.366;2022-12-07T00:18:38;94927.16;;;7.33;67.73
40205;BME280;26963;42.666;23.366;2022-12-07T00:21:10;94925.50;;;7.43;67.62
40205;BME280;26963;42.666;23.366;2022-12-07T00:23:35;94930.25;;;7.51;67.30
40205;BME280;26963;42.666;23.366;2022-12-07T00:26:11;94904.75;;;7.40;67.18
40205;BME280;26963;42.666;23.366;2022-12-07T00:28:37;94891.97;;;7.42;66.96
40205;BME280;26963;42.666;23.366;2022-12-07T00:31:06;94865.44;;;7.21;67.10
40205;BME280;26963;42.666;23.366;2022-12-07T00:33:33;94930.44;;;7.70;66.79
40205;BME280;26963;42.666;23.366;2022-12-07T00:36:00;94802.25;;;6.87;66.29
40205;BME280;26963;42.666;23.366;2022-12-07T00:38:28;94929.63;;;7.75;66.12
40205;BME280;26963;42.666;23.366;2022-12-07T00:40:59;94900.97;;;7.51;66.00
40205;BME280;26963;42.666;23.366;2022-12-07T00:43:25;94930.97;;;7.72;65.93
40205;BME280;26963;42.666;23.366;2022-12-07T00:45:51;94932.78;;;7.82;65.86
40205;BME280;26963;42.666;23.366;2022-12-07T00:48:17;94919.44;;;7.87;65.78
40205;BME280;26963;42.666;23.366;2022-12-07T00:50:42;94925.31;;;7.89;65.46
40205;BME280;26963;42.666;23.366;2022-12-07T00:53:08;94905.91;;;7.78;65.47
40205;BME280;26963;42.666;23.366;2022-12-07T00:55:34;94925.25;;;7.99;65.06
40205;BME280;26963;42.666;23.366;2022-12-07T00:58:00;94918.84;;;8.00;64.97
40205;BME280;26963;42.666;23.366;2022-12-07T01:00:25;94931.66;;;7.98;64.64
40205;BME280;26963;42.666;23.366;2022-12-07T01:02:52;94921.78;;;7.99;65.05
40205;BME280;26963;42.666;23.366;2022-12-07T01:05:18;94905.56;;;7.90;65.15
40205;BME280;26963;42.666;23.366;2022-12-07T01:07:43;94919.97;;;7.84;64.97
40205;BME280;26963;42.666;23.366;2022-12-07T01:10:09;94907.75;;;7.83;65.17
40205;BME280;26963;42.666;23.366;2022-12-07T01:12:35;94925.28;;;7.94;65.38
40205;BME280;26963;42.666;23.366;2022-12-07T01:15:00;94922.34;;;7.96;65.21
40205;BME280;26963;42.666;23.366;2022-12-07T01:17:26;94927.91;;;7.99;65.29
40205;BME280;26963;42.666;23.366;2022-12-07T01:19:53;94899.72;;;7.88;65.43
40205;BME280;26963;42.666;23.366;2022-12-07T01:22:18;94917.25;;;7.99;65.44
40205;BME280;26963;42.666;23.366;2022-12-07T01:24:44;94910.31;;;7.98;64.85
40205;BME280;26963;42.666;23.366;2022-12-07T01:27:12;94842.38;;;7.61;64.92
40205;BME280;26963;42.666;23.366;2022-12-07T01:29:38;94795.13;;;7.32;64.95
40205;BME280;26963;42.666;23.366;2022-12-07T01:32:04;94903.38;;;8.03;64.92
40205;BME280;26963;42.666;23.366;2022-12-07T01:34:29;94881.13;;;7.83;64.61
40205;BME280;26963;42.666;23.366;2022-12-07T01:36:55;94889.59;;;7.90;64.98
40205;BME280;26963;42.666;23.366;2022-12-07T01:39:20;94886.44;;;7.83;65.03
40205;BME280;26963;42.666;23.366;2022-12-07T01:41:46;94897.81;;;7.94;65.29
40205;BME280;26963;42.666;23.366;2022-12-07T01:44:14;94902.91;;;7.90;64.84
40205;BME280;26963;42.666;23.366;2022-12-07T01:46:42;94890.72;;;7.79;64.72
40205;BME280;26963;42.666;23.366;2022-12-07T01:49:18;94912.00;;;7.89;64.93
40205;BME280;26963;42.666;23.366;2022-12-07T01:51:47;94832.91;;;7.34;65.25
40205;BME280;26963;42.666;23.366;2022-12-07T01:54:14;94829.69;;;7.43;65.07
40205;BME280;26963;42.666;23.366;2022-12-07T01:56:46;94804.75;;;7.28;64.95
40205;BME280;26963;42.666;23.366;2022-12-07T01:59:15;94867.34;;;7.71;65.48
40205;BME280;26963;42.666;23.366;2022-12-07T02:01:41;94870.25;;;7.74;65.35
40205;BME280;26963;42.666;23.366;2022-12-07T02:04:07;94881.38;;;7.81;65.49
40205;BME280;26963;42.666;23.366;2022-12-07T02:06:35;94874.72;;;7.79;65.49
40205;BME280;26963;42.666;23.366;2022-12-07T02:09:02;94867.84;;;7.78;65.61
40205;BME280;26963;42.666;23.366;2022-12-07T02:11:27;94865.22;;;7.67;65.32
40205;BME280;26963;42.666;23.366;2022-12-07T02:13:53;94868.97;;;7.66;65.49
40205;BME280;26963;42.666;23.366;2022-12-07T02:27:37;94885.38;;;7.79;65.68
40205;BME280;26963;42.666;23.366;2022-12-07T02:30:07;94881.38;;;7.81;65.65
40205;BME280;26963;42.666;23.366;2022-12-07T02:35:17;94867.81;;;7.83;65.76
40205;BME280;26963;42.666;23.366;2022-12-07T02:37:57;94857.72;;;7.75;65.39
40205;BME280;26963;42.666;23.366;2022-12-07T02:40:43;94873.13;;;7.83;65.72
40205;BME280;26963;42.666;23.366;2022-12-07T02:43:17;94732.25;;;6.97;65.56
40205;BME280;26963;42.666;23.366;2022-12-07T02:45:45;94867.28;;;7.81;65.38
40205;BME280;26963;42.666;23.366;2022-12-07T02:48:16;94842.13;;;7.58;65.68
40205;BME280;26963;42.666;23.366;2022-12-07T02:50:50;94871.81;;;7.80;65.86
40205;BME280;26963;42.666;23.366;2022-12-07T02:53:36;94872.06;;;7.79;65.67
40205;BME280;26963;42.666;23.366;2022-12-07T03:06:54;94841.34;;;7.47;65.97
40205;BME280;26963;42.666;23.366;2022-12-07T03:09:28;94831.53;;;7.42;66.17
40205;BME280;26963;42.666;23.366;2022-12-07T03:12:07;94839.00;;;7.40;66.42
40205;BME280;26963;42.666;23.366;2022-12-07T03:14:40;94764.97;;;6.97;66.14
40205;BME280;26963;42.666;23.366;2022-12-07T03:17:21;94840.00;;;7.49;66.49
40205;BME280;26963;42.666;23.366;2022-12-07T03:19:51;94816.72;;;7.21;66.54
40205;BME280;26963;42.666;23.366;2022-12-07T03:22:19;94829.44;;;7.34;66.35
40205;BME280;26963;42.666;23.366;2022-12-07T03:24:50;94817.53;;;7.21;66.81
40205;BME280;26963;42.666;23.366;2022-12-07T03:27:32;94841.34;;;7.47;66.63
40205;BME280;26963;42.666;23.366;2022-12-07T03:30:19;94715.94;;;6.59;66.31
40205;BME280;26963;42.666;23.366;2022-12-07T03:33:02;94853.09;;;7.41;66.62
40205;BME280;26963;42.666;23.366;2022-12-07T03:35:34;94835.31;;;7.26;66.52
40205;BME280;26963;42.666;23.366;2022-12-07T03:38:14;94799.00;;;7.00;66.62
40205;BME280;26963;42.666;23.366;2022-12-07T03:40:54;94854.19;;;7.34;66.52
40205;BME280;26963;42.666;23.366;2022-12-07T03:43:22;94838.81;;;7.21;66.41
40205;BME280;26963;42.666;23.366;2022-12-07T03:53:47;94838.25;;;7.29;66.39
40205;BME280;26963;42.666;23.366;2022-12-07T03:56:16;94825.00;;;7.14;65.61
40205;BME280;26963;42.666;23.366;2022-12-07T03:58:43;94832.91;;;7.29;65.61
40205;BME280;26963;42.666;23.366;2022-12-07T04:01:08;94838.78;;;7.31;66.34
40205;BME280;26963;42.666;23.366;2022-12-07T04:03:34;94839.03;;;7.35;66.64
40205;BME280;26963;42.666;23.366;2022-12-07T04:06:00;94827.84;;;7.33;66.83
40205;BME280;26963;42.666;23.366;2022-12-07T04:08:26;94824.94;;;7.29;66.26
40205;BME280;26963;42.666;23.366;2022-12-07T04:10:51;94813.28;;;7.20;66.54
40205;BME280;26963;42.666;23.366;2022-12-07T04:13:17;94827.09;;;7.27;66.01
40205;BME280;26963;42.666;23.366;2022-12-07T04:15:42;94752.28;;;6.74;66.64
40205;BME280;26963;42.666;23.366;2022-12-07T04:18:08;94813.31;;;7.15;66.79
40205;BME280;26963;42.666;23.366;2022-12-07T04:20:33;94823.91;;;7.25;66.25
40205;BME280;26963;42.666;23.366;2022-12-07T04:22:59;94798.44;;;7.09;66.57
40205;BME280;26963;42.666;23.366;2022-12-07T04:25:24;94836.66;;;7.23;66.14
40205;BME280;26963;42.666;23.366;2022-12-07T04:27:50;94808.56;;;7.01;66.38
40205;BME280;26963;42.666;23.366;2022-12-07T04:30:15;94825.03;;;7.09;66.20
40205;BME280;26963;42.666;23.366;2022-12-07T04:32:41;94845.19;;;7.25;66.28
40205;BME280;26963;42.666;23.366;2022-12-07T04:35:07;94804.31;;;7.06;66.15
40205;BME280;26963;42.666;23.366;2022-12-07T04:37:33;94849.44;;;7.31;66.15
40205;BME280;26963;42.666;23.366;2022-12-07T04:39:58;94840.13;;;7.29;66.50
40205;BME280;26963;42.666;23.366;2022-12-07T04:42:24;94749.94;;;6.67;66.25
40205;BME280;26963;42.666;23.366;2022-12-07T04:44:49;94843.09;;;7.22;66.17
40205;BME280;26963;42.666;23.366;2022-12-07T04:47:16;94820.78;;;7.08;66.63
40205;BME280;26963;42.666;23.366;2022-12-07T04:49:41;94851.06;;;7.22;66.62
40205;BME280;26963;42.666;23.366;2022-12-07T04:52:07;94837.81;;;7.07;66.49
40205;BME280;26963;42.666;23.366;2022-12-07T04:54:32;94842.09;;;7.02;66.58
40205;BME280;26963;42.666;23.366;2022-12-07T04:56:58;94844.97;;;7.11;66.28
40205;BME280;26963;42.666;23.366;2022-12-07T04:59:23;94838.34;;;7.04;65.75
40205;BME280;26963;42.666;23.366;2022-12-07T05:01:49;94814.75;;;6.81;66.02
40205;BME280;26963;42.666;23.366;2022-12-07T05:04:15;94779.75;;;6.59;66.60
40205;BME280;26963;42.666;23.366;2022-12-07T05:06:41;94763.28;;;6.51;66.02
40205;BME280;26963;42.666;23.366;2022-12-07T05:09:07;94847.94;;;7.05;65.79
40205;BME280;26963;42.666;23.366;2022-12-07T05:11:32;94853.81;;;6.91;66.60
40205;BME280;26963;42.666;23.366;2022-12-07T05:14:13;94857.81;;;6.89;66.81
40205;BME280;26963;42.666;23.366;2022-12-07T05:16:40;94857.53;;;6.95;66.76
40205;BME280;26963;42.666;23.366;2022-12-07T05:19:06;94835.78;;;6.78;66.38
40205;BME280;26963;42.666;23.366;2022-12-07T05:21:32;94858.63;;;6.89;66.66
40205;BME280;26963;42.666;23.366;2022-12-07T05:23:58;94843.22;;;6.76;66.25
40205;BME280;26963;42.666;23.366;2022-12-07T05:26:23;94838.19;;;6.74;65.93
40205;BME280;26963;42.666;23.366;2022-12-07T05:28:53;94855.72;;;6.80;66.07
40205;BME280;26963;42.666;23.366;2022-12-07T05:31:19;94851.47;;;6.79;66.08
40205;BME280;26963;42.666;23.366;2022-12-07T05:33:45;94861.56;;;6.82;66.04
40205;BME280;26963;42.666;23.366;2022-12-07T05:36:10;94789.63;;;6.38;65.97
40205;BME280;26963;42.666;23.366;2022-12-07T05:38:36;94852.25;;;6.85;65.97
40205;BME280;26963;42.666;23.366;2022-12-07T05:41:03;94840.56;;;6.81;66.13
40205;BME280;26963;42.666;23.366;2022-12-07T05:43:30;94848.00;;;6.89;65.82
40205;BME280;26963;42.666;23.366;2022-12-07T05:45:56;94757.72;;;6.38;66.53
40205;BME280;26963;42.666;23.366;2022-12-07T05:48:22;94840.00;;;6.84;66.94
40205;BME280;26963;42.666;23.366;2022-12-07T05:50:48;94837.88;;;6.86;66.81
40205;BME280;26963;42.666;23.366;2022-12-07T05:53:14;94846.91;;;7.00;66.49
40205;BME280;26963;42.666;23.366;2022-12-07T05:55:40;94824.56;;;6.91;66.14
40205;BME280;26963;42.666;23.366;2022-12-07T05:58:06;94846.34;;;7.04;66.25
40205;BME280;26963;42.666;23.366;2022-12-07T06:00:50;94787.94;;;6.67;66.50
40205;BME280;26963;42.666;23.366;2022-12-07T06:03:15;94846.88;;;7.06;66.60
40205;BME280;26963;42.666;23.366;2022-12-07T06:05:41;94811.28;;;6.86;66.33
40205;BME280;26963;42.666;23.366;2022-12-07T06:08:07;94827.47;;;7.00;66.25
40205;BME280;26963;42.666;23.366;2022-12-07T06:10:33;94731.66;;;6.45;66.05
40205;BME280;26963;42.666;23.366;2022-12-07T06:12:58;94678.63;;;6.03;66.21
40205;BME280;26963;42.666;23.366;2022-12-07T06:15:24;94827.69;;;7.14;66.28
40205;BME280;26963;42.666;23.366;2022-12-07T06:17:50;94778.59;;;6.85;66.29
40205;BME280;26963;42.666;23.366;2022-12-07T06:20:15;94786.78;;;6.99;66.11
40205;BME280;26963;42.666;23.366;2022-12-07T06:22:41;94848.31;;;7.43;65.80
40205;BME280;26963;42.666;23.366;2022-12-07T06:25:07;94838.47;;;7.38;65.77
40205;BME280;26963;42.666;23.366;2022-12-07T06:27:33;94831.28;;;7.44;65.35
40205;BME280;26963;42.666;23.366;2022-12-07T06:29:58;94856.75;;;7.60;64.87
40205;BME280;26963;42.666;23.366;2022-12-07T06:32:25;94852.16;;;7.66;64.90
40205;BME280;26963;42.666;23.366;2022-12-07T06:34:50;94852.41;;;7.70;64.41
40205;BME280;26963;42.666;23.366;2022-12-07T06:37:16;94861.69;;;7.77;64.23
40205;BME280;26963;42.666;23.366;2022-12-07T06:39:41;94855.59;;;7.77;64.05
40205;BME280;26963;42.666;23.366;2022-12-07T06:42:07;94834.81;;;7.74;63.79
40205;BME280;26963;42.666;23.366;2022-12-07T06:44:32;94762.63;;;7.35;64.05
40205;BME280;26963;42.666;23.366;2022-12-07T06:46:58;94837.69;;;7.82;64.02
40205;BME280;26963;42.666;23.366;2022-12-07T06:49:24;94830.31;;;7.74;63.79
40205;BME280;26963;42.666;23.366;2022-12-07T06:51:49;94855.44;;;7.97;63.74
40205;BME280;26963;42.666;23.366;2022-12-07T06:54:15;94864.91;;;8.14;63.88
40205;BME280;26963;42.666;23.366;2022-12-07T06:56:41;94809.16;;;7.88;63.68
40205;BME280;26963;42.666;23.366;2022-12-07T06:59:07;94848.16;;;8.13;63.25
40205;BME280;26963;42.666;23.366;2022-12-07T07:01:34;94823.22;;;7.94;63.37
40205;BME280;26963;42.666;23.366;2022-12-07T07:03:59;94850.19;;;8.22;63.13
40205;BME280;26963;42.666;23.366;2022-12-07T07:06:25;94857.09;;;8.28;63.22
40205;BME280;26963;42.666;23.366;2022-12-07T07:08:51;94831.09;;;8.09;63.21
40205;BME280;26963;42.666;23.366;2022-12-07T07:11:16;94862.09;;;8.35;63.28
40205;BME280;26963;42.666;23.366;2022-12-07T07:13:42;94801.63;;;8.00;62.97
40205;BME280;26963;42.666;23.366;2022-12-07T07:16:08;94863.66;;;8.41;63.11
40205;BME280;26963;42.666;23.366;2022-12-07T07:18:33;94780.03;;;8.02;63.32
40205;BME280;26963;42.666;23.366;2022-12-07T07:21:00;94787.16;;;8.07;62.84
40205;BME280;26963;42.666;23.366;2022-12-07T07:23:26;94867.69;;;8.68;62.55
40205;BME280;26963;42.666;23.366;2022-12-07T07:25:52;94875.09;;;8.76;62.76
40205;BME280;26963;42.666;23.366;2022-12-07T07:28:18;94833.19;;;8.52;62.78
40205;BME280;26963;42.666;23.366;2022-12-07T07:30:44;94841.03;;;8.68;62.33
40205;BME280;26963;42.666;23.366;2022-12-07T07:33:10;94796.41;;;8.49;61.67
40205;BME280;26963;42.666;23.366;2022-12-07T07:35:35;94793.41;;;8.56;61.37
40205;BME280;26963;42.666;23.366;2022-12-07T07:38:01;94807.06;;;8.78;61.21
40205;BME280;26963;42.666;23.366;2022-12-07T07:40:27;94883.06;;;9.29;61.43
40205;BME280;26963;42.666;23.366;2022-12-07T07:42:57;94845.34;;;9.17;62.68
40205;BME280;26963;42.666;23.366;2022-12-07T07:45:24;94819.13;;;9.19;64.91
40205;BME280;26963;42.666;23.366;2022-12-07T07:47:50;94880.78;;;9.85;64.19
40205;BME280;26963;42.666;23.366;2022-12-07T07:50:16;94860.91;;;9.91;60.62
40205;BME280;26963;42.666;23.366;2022-12-07T07:52:43;94793.19;;;9.63;58.94
40205;BME280;26963;42.666;23.366;2022-12-07T07:55:09;94870.16;;;10.18;58.98
40205;BME280;26963;42.666;23.366;2022-12-07T07:57:35;94784.66;;;9.80;58.40
40205;BME280;26963;42.666;23.366;2022-12-07T08:00:07;94853.59;;;10.35;58.37
40205;BME280;26963;42.666;23.366;2022-12-07T08:02:33;94786.75;;;10.02;57.94
40205;BME280;26963;42.666;23.366;2022-12-07T08:04:58;94851.91;;;10.58;57.63
40205;BME280;26963;42.666;23.366;2022-12-07T08:07:24;94821.69;;;10.58;57.42
40205;BME280;26963;42.666;23.366;2022-12-07T08:09:49;94880.13;;;10.98;57.36
40205;BME280;26963;42.666;23.366;2022-12-07T08:12:15;94877.66;;;11.01;56.96
40205;BME280;26963;42.666;23.366;2022-12-07T08:14:40;94865.44;;;10.95;56.39
40205;BME280;26963;42.666;23.366;2022-12-07T08:17:06;94847.59;;;10.90;56.22
40205;BME280;26963;42.666;23.366;2022-12-07T08:19:32;94854.72;;;10.81;55.81
40205;BME280;26963;42.666;23.366;2022-12-07T08:21:58;94692.81;;;9.76;55.95
40205;BME280;26963;42.666;23.366;2022-12-07T08:24:23;94717.78;;;9.85;56.17
40205;BME280;26963;42.666;23.366;2022-12-07T08:26:50;94850.53;;;10.75;56.44
40205;BME280;26963;42.666;23.366;2022-12-07T08:29:16;94765.78;;;10.23;56.14
40205;BME280;26963;42.666;23.366;2022-12-07T08:31:42;94769.41;;;10.33;56.10
40205;BME280;26963;42.666;23.366;2022-12-07T08:34:10;94793.22;;;10.48;55.79
40205;BME280;26963;42.666;23.366;2022-12-07T08:36:36;94848.94;;;10.74;55.89
40205;BME280;26963;42.666;23.366;2022-12-07T08:39:02;94827.13;;;10.53;56.15
40205;BME280;26963;42.666;23.366;2022-12-07T08:41:28;94840.19;;;10.54;56.38
40205;BME280;26963;42.666;23.366;2022-12-07T08:43:53;94855.47;;;10.35;55.90
40205;BME280;26963;42.666;23.366;2022-12-07T08:46:23;94808.78;;;9.75;54.55
40205;BME280;26963;42.666;23.366;2022-12-07T08:51:16;94786.34;;;9.38;59.65
40205;BME280;26963;42.666;23.366;2022-12-07T08:53:42;94772.81;;;9.10;60.34
40205;BME280;26963;42.666;23.366;2022-12-07T08:56:09;94789.84;;;9.14;60.29
40205;BME280;26963;42.666;23.366;2022-12-07T08:58:35;94839.63;;;9.24;61.07
40205;BME280;26963;42.666;23.366;2022-12-07T09:01:01;94779.78;;;8.81;61.33
40205;BME280;26963;42.666;23.366;2022-12-07T09:03:27;94809.66;;;9.08;61.79
40205;BME280;26963;42.666;23.366;2022-12-07T09:05:53;94761.69;;;9.03;61.21
40205;BME280;26963;42.666;23.366;2022-12-07T09:08:20;94783.47;;;9.10;60.39
40205;BME280;26963;42.666;23.366;2022-12-07T09:10:47;94846.94;;;9.37;61.39
40205;BME280;26963;42.666;23.366;2022-12-07T09:13:13;94839.47;;;9.15;61.64
40205;BME280;26963;42.666;23.366;2022-12-07T09:15:38;94830.22;;;9.07;61.97
40205;BME280;26963;42.666;23.366;2022-12-07T09:18:04;94774.84;;;8.94;61.80
40205;BME280;26963;42.666;23.366;2022-12-07T09:20:30;94830.44;;;9.35;61.09
40205;BME280;26963;42.666;23.366;2022-12-07T09:22:56;94758.19;;;8.83;60.74
40205;BME280;26963;42.666;23.366;2022-12-07T09:25:21;94739.25;;;8.60;62.11
40205;BME280;26963;42.666;23.366;2022-12-07T09:27:47;94799.16;;;8.92;62.86
40205;BME280;26963;42.666;23.366;2022-12-07T09:30:13;94806.44;;;8.87;63.02
40205;BME280;26963;42.666;23.366;2022-12-07T09:32:38;94817.03;;;9.16;62.48
40205;BME280;26963;42.666;23.366;2022-12-07T09:35:04;94809.47;;;9.23;62.14
40205;BME280;26963;42.666;23.366;2022-12-07T09:37:30;94808.44;;;9.19;61.90
40205;BME280;26963;42.666;23.366;2022-12-07T09:40:00;94713.47;;;8.51;62.70
40205;BME280;26963;42.666;23.366;2022-12-07T09:42:41;94783.16;;;8.92;62.92
40205;BME280;26963;42.666;23.366;2022-12-07T09:45:15;94799.63;;;9.00;62.87
40205;BME280;26963;42.666;23.366;2022-12-07T09:47:42;94801.19;;;9.25;62.21
40205;BME280;26963;42.666;23.366;2022-12-07T09:50:14;94802.41;;;9.33;62.24
40205;BME280;26963;42.666;23.366;2022-12-07T09:52:42;94787.16;;;9.14;62.05
40205;BME280;26963;42.666;23.366;2022-12-07T09:55:12;94760.22;;;8.91;62.73
40205;BME280;26963;42.666;23.366;2022-12-07T09:57:39;94708.94;;;8.51;63.00
40205;BME280;26963;42.666;23.366;2022-12-07T10:00:12;94796.31;;;9.08;63.00
40205;BME280;26963;42.666;23.366;2022-12-07T10:02:56;94793.97;;;9.25;62.27
40205;BME280;26963;42.666;23.366;2022-12-07T10:05:28;94788.47;;;9.36;62.02
40205;BME280;26963;42.666;23.366;2022-12-07T10:07:55;94732.25;;;9.08;61.85
40205;BME280;26963;42.666;23.366;2022-12-07T10:10:26;94771.75;;;9.30;62.51
40205;BME280;26963;42.666;23.366;2022-12-07T10:12:55;94762.59;;;9.17;62.39
40205;BME280;26963;42.666;23.366;2022-12-07T10:15:21;94730.09;;;9.10;63.79
40205;BME280;26963;42.666;23.366;2022-12-07T10:17:48;94759.34;;;9.58;63.35
40205;BME280;26963;42.666;23.366;2022-12-07T10:25:22;94704.72;;;9.32;63.00
40205;BME280;26963;42.666;23.366;2022-12-07T10:27:59;94695.19;;;9.25;63.92
40205;BME280;26963;42.666;23.366;2022-12-07T10:30:25;94692.03;;;9.56;63.43
40205;BME280;26963;42.666;23.366;2022-12-07T10:32:50;94674.41;;;9.74;62.04
40205;BME280;26963;42.666;23.366;2022-12-07T10:35:29;94712.69;;;10.03;61.34
40205;BME280;26963;42.666;23.366;2022-12-07T10:37:58;94737.06;;;10.15;61.55
40205;BME280;26963;42.666;23.366;2022-12-07T10:40:33;94689.84;;;9.77;60.37
40205;BME280;26963;42.666;23.366;2022-12-07T10:43:04;94726.88;;;10.17;59.42
40205;BME280;26963;42.666;23.366;2022-12-07T10:45:31;94727.91;;;10.35;59.04
40205;BME280;26963;42.666;23.366;2022-12-07T10:48:24;94669.16;;;10.16;58.43
40205;BME280;26963;42.666;23.366;2022-12-07T10:51:09;94730.16;;;10.28;58.48
40205;BME280;26963;42.666;23.366;2022-12-07T10:59:42;94723.22;;;10.27;58.93
40205;BME280;26963;42.666;23.366;2022-12-07T11:13:13;94626.19;;;10.12;57.02
40205;BME280;26963;42.666;23.366;2022-12-07T11:16:34;94692.25;;;10.54;57.01
40205;BME280;26963;42.666;23.366;2022-12-07T11:21:24;94691.94;;;10.27;57.95
40205;BME280;26963;42.666;23.366;2022-12-07T11:24:31;94684.59;;;10.19;58.44
40205;BME280;26963;42.666;23.366;2022-12-07T11:27:09;94670.44;;;10.33;57.93
40205;BME280;26963;42.666;23.366;2022-12-07T11:32:52;94671.97;;;10.39;57.99
40205;BME280;26963;42.666;23.366;2022-12-07T11:37:51;94648.25;;;10.18;58.21
40205;BME280;26963;42.666;23.366;2022-12-07T11:40:33;94661.81;;;10.08;58.34
40205;BME280;26963;42.666;23.366;2022-12-07T11:43:05;94659.00;;;9.85;59.28
40205;BME280;26963;42.666;23.366;2022-12-07T11:45:37;94664.09;;;9.68;59.84
40205;BME280;26963;42.666;23.366;2022-12-07T11:48:17;94650.47;;;9.69;59.30
40205;BME280;26963;42.666;23.366;2022-12-07T11:50:50;94626.91;;;9.71;59.16
40205;BME280;26963;42.666;23.366;2022-12-07T11:53:19;94626.47;;;9.50;60.10
40205;BME280;26963;42.666;23.366;2022-12-07T11:55:52;94643.97;;;9.42;60.51
40205;BME280;26963;42.666;23.366;2022-12-07T11:58:37;94643.50;;;9.54;60.92
40205;BME280;26963;42.666;23.366;2022-12-07T12:04:01;94642.97;;;9.85;60.03
40205;BME280;26963;42.666;23.366;2022-12-07T12:06:31;94620.69;;;9.76;59.40
40205;BME280;26963;42.666;23.366;2022-12-07T12:22:54;94621.34;;;9.68;60.24
40205;BME280;26963;42.666;23.366;2022-12-07T12:25:29;94611.00;;;9.94;59.83
40205;BME280;26963;42.666;23.366;2022-12-07T12:27:58;94604.19;;;10.02;59.17
40205;BME280;26963;42.666;23.366;2022-12-07T12:30:39;94617.44;;;10.07;59.69
40205;BME280;26963;42.666;23.366;2022-12-07T12:33:28;94598.44;;;9.94;60.11
40205;BME280;26963;42.666;23.366;2022-12-07T12:39:15;94599.03;;;10.19;58.20
40205;BME280;26963;42.666;23.366;2022-12-07T12:47:04;94585.56;;;9.96;59.18
40205;BME280;26963;42.666;23.366;2022-12-07T12:54:59;94527.34;;;9.38;60.63
40205;BME280;26963;42.666;23.366;2022-12-07T12:57:31;94596.75;;;9.99;59.69
40205;BME280;26963;42.666;23.366;2022-12-07T13:00:12;94591.13;;;10.14;59.52
40205;BME280;26963;42.666;23.366;2022-12-07T13:02:52;94584.38;;;10.03;59.23
40205;BME280;26963;42.666;23.366;2022-12-07T13:05:23;94595.28;;;10.06;59.06
40205;BME280;26963;42.666;23.366;2022-12-07T13:12:57;94576.69;;;10.43;58.77
40205;BME280;26963;42.666;23.366;2022-12-07T13:15:44;94562.19;;;10.58;57.77
40205;BME280;26963;42.666;23.366;2022-12-07T13:20:57;94591.72;;;10.53;58.49
40205;BME280;26963;42.666;23.366;2022-12-07T13:28:50;94595.81;;;10.87;57.79
40205;BME280;26963;42.666;23.366;2022-12-07T13:33:57;94592.72;;;10.43;59.25
40205;BME280;26963;42.666;23.366;2022-12-07T13:36:38;94581.38;;;10.60;59.18
40205;BME280;26963;42.666;23.366;2022-12-07T13:41:42;94586.81;;;10.69;58.12
40205;BME280;26963;42.666;23.366;2022-12-07T13:44:13;94577.25;;;10.40;59.21
40205;BME280;26963;42.666;23.366;2022-12-07T13:49:26;94543.97;;;10.18;60.02
40205;BME280;26963;42.666;23.366;2022-12-07T13:51:53;94573.47;;;10.55;59.17
40205;BME280;26963;42.666;23.366;2022-12-07T13:54:20;94554.50;;;10.28;59.31
40205;BME280;26963;42.666;23.366;2022-12-07T13:56:53;94574.97;;;10.33;59.65
40205;BME280;26963;42.666;23.366;2022-12-07T13:59:19;94568.34;;;10.31;60.06
40205;BME280;26963;42.666;23.366;2022-12-07T14:01:47;94539.03;;;10.25;60.08
40205;BME280;26963;42.666;23.366;2022-12-07T14:06:54;94504.00;;;9.85;60.55
40205;BME280;26963;42.666;23.366;2022-12-07T14:09:28;94568.34;;;10.03;61.04
40205;BME280;26963;42.666;23.366;2022-12-07T14:11:56;94564.28;;;10.05;61.83
40205;BME280;26963;42.666;23.366;2022-12-07T14:14:27;94572.50;;;10.23;61.03
40205;BME280;26963;42.666;23.366;2022-12-07T14:17:13;94577.66;;;10.19;60.52
40205;BME280;26963;42.666;23.366;2022-12-07T14:19:57;94581.63;;;10.08;61.31
40205;BME280;26963;42.666;23.366;2022-12-07T14:24:50;94551.22;;;9.76;62.16
40205;BME280;26963;42.666;23.366;2022-12-07T14:27:22;94594.88;;;10.13;61.31
40205;BME280;26963;42.666;23.366;2022-12-07T14:29:48;94575.16;;;9.81;61.69
40205;BME280;26963;42.666;23.366;2022-12-07T14:32:28;94533.66;;;9.42;62.39
40205;BME280;26963;42.666;23.366;2022-12-07T14:34:59;94582.38;;;9.67;63.24
40205;BME280;26963;42.666;23.366;2022-12-07T14:37:25;94522.22;;;9.41;62.57
40205;BME280;26963;42.666;23.366;2022-12-07T14:39:51;94560.22;;;9.66;62.06
40205;BME280;26963;42.666;23.366;2022-12-07T14:42:20;94518.59;;;9.18;62.88
40205;BME280;26963;42.666;23.366;2022-12-07T14:44:45;94579.94;;;9.37;63.68
40205;BME280;26963;42.666;23.366;2022-12-07T14:47:11;94555.72;;;9.34;63.54
40205;BME280;26963;42.666;23.366;2022-12-07T14:49:37;94514.25;;;9.22;63.04
40205;BME280;26963;42.666;23.366;2022-12-07T14:52:03;94585.63;;;9.63;62.83
40205;BME280;26963;42.666;23.366;2022-12-07T14:54:31;94565.03;;;9.36;63.72
40205;BME280;26963;42.666;23.366;2022-12-07T14:56:58;94522.84;;;8.86;64.52
40205;BME280;26963;42.666;23.366;2022-12-07T14:59:23;94542.84;;;9.03;64.76
40205;BME280;26963;42.666;23.366;2022-12-07T15:01:50;94599.75;;;9.50;63.71
40205;BME280;26963;42.666;23.366;2022-12-07T15:04:16;94594.59;;;9.54;63.65
40205;BME280;26963;42.666;23.366;2022-12-07T15:06:41;94588.63;;;9.29;64.32
40205;BME280;26963;42.666;23.366;2022-12-07T15:09:11;94589.72;;;9.09;65.09